Time;durP1;ratioP1;P1;durP2;ratioP2;P2;SDS_P1;SDS_P2;PMS_P1;PMS_P2;Temp;Humidity;BMP_temperature;BMP_pressure;BME280_temperature;BME280_humidity;BME280_pressure;Samples;Min_cycle;Max_cycle;Signal;HPM_P1;HPM_P2
2021/07/02 00:01:17;;;;;;;10.70;7.15;;;10.70;98.00;;;;;;5045780;28;20029;-86
2021/07/02 00:03:44;;;;;;;12.10;7.40;;;10.80;98.00;;;;;;5050583;28;20025;-86
2021/07/02 00:06:10;;;;;;;12.75;7.57;;;10.80;98.00;;;;;;5052842;28;20036;-86
2021/07/02 00:08:36;;;;;;;13.13;7.70;;;10.80;98.00;;;;;;5051812;28;20017;-86
2021/07/02 00:11:02;;;;;;;12.38;6.72;;;10.80;98.00;;;;;;5052516;28;20096;-86
2021/07/02 00:13:30;;;;;;;12.85;7.13;;;10.80;98.00;;;;;;5044435;28;20018;-86
2021/07/02 00:15:56;;;;;;;11.18;6.15;;;10.80;98.00;;;;;;5034557;28;20453;-85
2021/07/02 00:18:22;;;;;;;15.02;7.22;;;10.70;98.00;;;;;;5038927;28;20030;-85
2021/07/02 00:20:48;;;;;;;12.25;7.07;;;10.70;98.00;;;;;;5036559;28;20026;-86
2021/07/02 00:23:14;;;;;;;13.75;6.60;;;10.70;98.00;;;;;;5055765;28;20029;-86
2021/07/02 00:25:41;;;;;;;14.27;7.38;;;10.70;98.00;;;;;;5056338;28;20025;-86
2021/07/02 00:28:08;;;;;;;15.02;7.45;;;10.70;98.00;;;;;;5042002;28;20028;-86
2021/07/02 00:30:35;;;;;;;11.98;6.70;;;10.60;98.00;;;;;;5055810;28;20108;-86
2021/07/02 00:33:02;;;;;;;11.93;7.65;;;10.50;98.00;;;;;;5041893;28;20083;-86
2021/07/02 00:35:29;;;;;;;13.25;8.00;;;10.50;98.00;;;;;;5042498;28;20040;-86
2021/07/02 00:37:55;;;;;;;13.63;7.05;;;10.50;98.00;;;;;;5054968;28;20025;-86
2021/07/02 00:40:21;;;;;;;12.48;6.65;;;10.50;97.90;;;;;;5053037;28;20036;-86
2021/07/02 00:42:49;;;;;;;12.50;7.30;;;10.50;98.00;;;;;;5056475;28;20017;-85
2021/07/02 00:45:15;;;;;;;12.60;7.68;;;10.50;98.00;;;;;;5056337;28;20425;-85
2021/07/02 00:47:42;;;;;;;13.93;7.47;;;10.50;98.00;;;;;;5042465;28;20043;-86
2021/07/02 00:50:10;;;;;;;12.68;7.80;;;10.40;98.00;;;;;;5035772;28;20029;-86
2021/07/02 00:52:36;;;;;;;15.73;8.18;;;10.30;98.00;;;;;;5047562;28;20291;-86
2021/07/02 00:55:02;;;;;;;13.30;7.40;;;10.30;97.70;;;;;;5045991;28;20072;-86
2021/07/02 00:57:29;;;;;;;12.55;7.03;;;10.40;97.80;;;;;;5035272;28;20036;-86
2021/07/02 00:59:55;;;;;;;13.60;8.43;;;10.40;98.00;;;;;;5042455;28;20025;-85
2021/07/02 01:02:22;;;;;;;13.30;8.02;;;10.30;97.90;;;;;;5046697;28;20025;-85
2021/07/02 01:04:48;;;;;;;11.00;7.20;;;10.30;97.90;;;;;;5038859;28;20094;-85
2021/07/02 01:07:16;;;;;;;12.85;8.32;;;10.30;98.00;;;;;;5049914;28;20029;-86
2021/07/02 01:09:43;;;;;;;15.85;6.90;;;10.30;98.00;;;;;;5049630;28;20096;-86
2021/07/02 01:12:11;;;;;;;13.38;7.10;;;10.30;98.00;;;;;;5035956;28;20025;-86
2021/07/02 01:14:38;;;;;;;14.43;7.65;;;10.30;98.00;;;;;;5036267;28;20334;-86
2021/07/02 01:17:04;;;;;;;15.10;7.35;;;10.20;98.00;;;;;;5051032;28;20184;-85
2021/07/02 01:19:31;;;;;;;12.18;7.03;;;10.20;98.00;;;;;;5045974;28;20040;-86
2021/07/02 01:21:57;;;;;;;12.45;7.43;;;10.00;98.00;;;;;;5056255;28;20032;-86
2021/07/02 01:24:23;;;;;;;11.15;7.22;;;10.00;98.00;;;;;;5049754;28;20334;-85
2021/07/02 01:26:53;;;;;;;12.35;7.25;;;9.90;98.00;;;;;;5034933;28;20037;-85
2021/07/02 01:29:21;;;;;;;15.55;7.90;;;9.90;97.60;;;;;;5040530;28;20025;-85
2021/07/02 01:31:47;;;;;;;12.30;7.35;;;9.90;97.80;;;;;;5045889;28;20182;-86
2021/07/02 01:34:13;;;;;;;15.20;8.18;;;9.80;97.70;;;;;;5035038;28;20021;-86
2021/07/02 01:36:39;;;;;;;16.13;8.25;;;9.80;97.50;;;;;;5038481;28;20049;-85
2021/07/02 01:39:05;;;;;;;14.30;7.85;;;9.90;97.50;;;;;;5050306;28;20033;-85
2021/07/02 01:41:31;;;;;;;13.05;7.72;;;9.80;97.60;;;;;;5054268;28;20056;-85
2021/07/02 01:43:57;;;;;;;13.77;8.02;;;9.80;97.50;;;;;;5042209;28;20041;-85
2021/07/02 01:46:23;;;;;;;15.60;8.65;;;9.70;97.60;;;;;;5035884;28;20025;-85
2021/07/02 01:48:49;;;;;;;14.75;7.50;;;9.70;97.40;;;;;;5047289;28;20028;-86
2021/07/02 01:51:15;;;;;;;13.85;8.57;;;9.70;97.10;;;;;;5036490;28;20429;-85
2021/07/02 01:53:41;;;;;;;13.80;8.25;;;9.70;97.30;;;;;;5044192;28;20079;-85
2021/07/02 01:56:07;;;;;;;15.32;8.25;;;9.60;97.20;;;;;;5055662;28;20024;-85
2021/07/02 01:58:33;;;;;;;13.90;8.60;;;9.70;97.00;;;;;;5043039;28;20049;-86
2021/07/02 02:00:59;;;;;;;15.20;8.23;;;9.70;97.10;;;;;;5051696;28;20040;-85
2021/07/02 02:03:25;;;;;;;16.15;8.00;;;9.60;97.00;;;;;;5067256;28;20017;-86
2021/07/02 02:05:51;;;;;;;12.50;7.47;;;9.60;97.10;;;;;;5053960;28;20021;-86
2021/07/02 02:08:17;;;;;;;13.45;7.82;;;9.60;96.90;;;;;;5042602;28;20083;-86
2021/07/02 02:10:43;;;;;;;19.23;7.88;;;9.60;97.10;;;;;;5048621;28;20033;-85
2021/07/02 02:13:09;;;;;;;18.58;9.35;;;9.50;96.80;;;;;;5038699;28;20033;-85
2021/07/02 02:15:35;;;;;;;17.02;9.40;;;9.50;96.60;;;;;;5036259;28;20365;-86
2021/07/02 02:18:01;;;;;;;13.00;8.43;;;9.60;96.80;;;;;;5049560;28;20078;-85
2021/07/02 02:20:27;;;;;;;13.10;7.97;;;9.50;96.90;;;;;;5052685;28;20029;-86
2021/07/02 02:22:53;;;;;;;14.65;8.77;;;9.50;96.50;;;;;;5054324;28;20033;-85
2021/07/02 02:25:21;;;;;;;17.55;9.80;;;9.50;96.70;;;;;;5041618;28;20029;-86
2021/07/02 02:27:48;;;;;;;17.77;8.55;;;9.50;96.30;;;;;;5043297;28;20032;-86
2021/07/02 02:30:14;;;;;;;18.95;8.35;;;9.50;96.80;;;;;;5053611;28;20029;-86
2021/07/02 02:32:41;;;;;;;14.70;8.57;;;9.40;96.70;;;;;;5051142;28;20040;-86
2021/07/02 02:35:10;;;;;;;13.75;8.65;;;9.40;96.70;;;;;;5051677;28;20040;-86
2021/07/02 02:37:37;;;;;;;16.27;8.35;;;9.30;96.70;;;;;;5020022;28;20037;-86
2021/07/02 02:40:08;;;;;;;12.55;7.68;;;9.30;96.50;;;;;;5041649;28;20033;-86
2021/07/02 02:42:35;;;;;;;16.25;9.30;;;9.30;96.20;;;;;;5051083;28;20033;-86
2021/07/02 02:45:01;;;;;;;14.25;7.90;;;9.30;96.50;;;;;;5044533;28;20457;-86
2021/07/02 02:47:27;;;;;;;15.60;9.40;;;9.30;96.50;;;;;;5034193;28;20034;-86
2021/07/02 02:49:53;;;;;;;18.02;9.13;;;9.20;96.30;;;;;;5044145;28;20021;-86
2021/07/02 02:52:21;;;;;;;14.32;8.93;;;9.20;96.50;;;;;;5043168;28;20041;-85
2021/07/02 02:54:46;;;;;;;17.33;10.15;;;9.30;96.00;;;;;;5033560;28;20021;-86
2021/07/02 02:57:12;;;;;;;16.33;9.73;;;9.30;96.40;;;;;;5038175;28;20040;-86
2021/07/02 02:59:38;;;;;;;15.73;9.82;;;9.20;96.30;;;;;;5041747;28;20083;-86
2021/07/02 03:02:06;;;;;;;19.25;10.80;;;9.20;96.10;;;;;;5047345;28;20043;-86
2021/07/02 03:04:36;;;;;;;18.60;9.80;;;9.20;96.10;;;;;;5052713;28;20029;-86
2021/07/02 03:07:05;;;;;;;17.52;10.85;;;9.20;96.20;;;;;;5053292;28;20052;-86
2021/07/02 03:09:32;;;;;;;20.17;10.25;;;9.20;96.00;;;;;;5050403;28;20052;-86
2021/07/02 03:11:58;;;;;;;20.13;11.00;;;9.30;95.60;;;;;;5053468;28;20039;-86
2021/07/02 03:14:24;;;;;;;18.30;10.55;;;9.30;95.70;;;;;;5041382;28;20048;-86
2021/07/02 03:16:51;;;;;;;24.67;12.60;;;9.30;95.70;;;;;;5053190;28;20036;-86
2021/07/02 03:19:17;;;;;;;19.13;10.95;;;9.40;95.70;;;;;;5051109;28;20116;-86
2021/07/02 03:21:44;;;;;;;16.30;10.23;;;9.50;95.60;;;;;;5033080;28;20033;-85
2021/07/02 03:24:10;;;;;;;17.85;10.10;;;9.40;95.70;;;;;;5055795;28;20090;-85
2021/07/02 03:26:38;;;;;;;19.98;10.18;;;9.40;95.50;;;;;;5070323;28;20024;-85
2021/07/02 03:29:05;;;;;;;21.48;11.13;;;9.30;95.90;;;;;;5059059;28;20048;-85
2021/07/02 03:31:32;;;;;;;18.35;10.90;;;9.30;95.50;;;;;;5041450;28;20025;-86
2021/07/02 03:33:58;;;;;;;19.05;10.18;;;9.40;95.40;;;;;;5064090;28;20032;-86
2021/07/02 03:36:26;;;;;;;18.58;11.30;;;9.50;95.50;;;;;;5037506;28;20033;-87
2021/07/02 03:38:51;;;;;;;19.63;10.38;;;9.50;95.50;;;;;;5046689;28;20021;-87
2021/07/02 03:41:17;;;;;;;20.55;11.05;;;9.50;95.70;;;;;;5049716;28;20056;-86
2021/07/02 03:43:44;;;;;;;18.35;11.10;;;9.40;95.50;;;;;;5046528;28;20029;-86
2021/07/02 03:46:11;;;;;;;19.40;11.60;;;9.50;95.40;;;;;;5052091;28;20036;-86
2021/07/02 03:48:36;;;;;;;19.33;11.00;;;9.50;95.40;;;;;;5052485;28;20036;-87
2021/07/02 03:51:03;;;;;;;19.50;11.55;;;9.60;95.40;;;;;;5051313;28;20551;-86
2021/07/02 03:53:29;;;;;;;19.55;11.27;;;9.60;95.30;;;;;;5062606;28;20021;-86
2021/07/02 03:55:55;;;;;;;18.55;10.45;;;9.60;95.50;;;;;;5055466;28;20116;-86
2021/07/02 03:58:21;;;;;;;19.50;10.82;;;9.70;95.50;;;;;;5055772;28;20455;-86
2021/07/02 04:00:47;;;;;;;21.95;10.90;;;9.60;95.60;;;;;;5053247;28;20059;-86
2021/07/02 04:03:15;;;;;;;18.13;10.68;;;9.60;95.30;;;;;;5046627;28;20026;-86
2021/07/02 04:05:44;;;;;;;19.90;10.77;;;9.70;95.40;;;;;;5054874;28;20104;-85
2021/07/02 04:08:12;;;;;;;18.05;10.25;;;9.80;95.00;;;;;;5057551;28;20040;-86
2021/07/02 04:10:38;;;;;;;18.73;10.52;;;10.00;95.00;;;;;;5049298;28;20392;-86
2021/07/02 04:13:04;;;;;;;16.15;9.60;;;10.10;95.20;;;;;;5057700;28;20112;-86
2021/07/02 04:15:30;;;;;;;16.10;10.23;;;10.10;95.20;;;;;;5058769;28;20044;-86
2021/07/02 04:17:56;;;;;;;19.10;10.07;;;10.00;95.20;;;;;;5052932;28;20028;-85
2021/07/02 04:20:22;;;;;;;18.38;9.70;;;10.20;95.00;;;;;;5038357;28;20037;-85
2021/07/02 04:22:48;;;;;;;19.05;10.45;;;10.30;95.10;;;;;;5048360;28;20029;-85
2021/07/02 04:25:14;;;;;;;20.80;9.50;;;10.30;95.40;;;;;;5046620;28;20349;-84
2021/07/02 04:27:42;;;;;;;21.25;10.52;;;10.50;94.90;;;;;;5054049;28;20649;-85
2021/07/02 04:30:10;;;;;;;15.80;9.25;;;10.60;95.30;;;;;;5055222;28;20055;-85
2021/07/02 04:32:36;;;;;;;18.38;9.25;;;10.60;95.30;;;;;;5061991;28;20032;-85
2021/07/02 04:35:05;;;;;;;16.60;9.32;;;10.60;95.50;;;;;;5055371;28;20036;-85
2021/07/02 04:37:31;;;;;;;13.25;8.77;;;10.70;95.40;;;;;;5067082;28;20377;-85
2021/07/02 04:39:57;;;;;;;16.13;8.63;;;10.70;95.50;;;;;;5053012;28;20059;-85
2021/07/02 04:42:23;;;;;;;17.52;9.68;;;10.80;95.70;;;;;;5057587;28;20045;-85
2021/07/02 04:44:49;;;;;;;14.38;8.35;;;10.80;96.10;;;;;;5056798;28;20041;-85
2021/07/02 04:47:15;;;;;;;26.90;10.43;;;10.70;96.00;;;;;;5053863;28;20028;-85
2021/07/02 04:49:42;;;;;;;14.40;8.98;;;10.70;96.20;;;;;;5066113;28;20028;-85
2021/07/02 04:52:08;;;;;;;15.88;9.05;;;10.70;96.40;;;;;;5053659;28;20013;-85
2021/07/02 04:54:35;;;;;;;14.60;8.75;;;10.70;96.20;;;;;;5048986;28;20029;-85
2021/07/02 04:57:02;;;;;;;15.95;8.70;;;10.70;96.30;;;;;;5062715;28;20024;-85
2021/07/02 04:59:34;;;;;;;14.90;8.77;;;10.80;96.20;;;;;;5047458;28;20031;-86
2021/07/02 05:02:01;;;;;;;14.90;7.82;;;10.80;96.20;;;;;;5052377;28;20021;-85
2021/07/02 05:04:27;;;;;;;19.45;8.85;;;10.80;96.50;;;;;;5052827;28;20377;-85
2021/07/02 05:06:53;;;;;;;13.52;8.73;;;10.90;96.20;;;;;;5055525;28;20020;-86
2021/07/02 05:09:21;;;;;;;15.88;8.90;;;11.00;96.50;;;;;;5050872;28;20017;-85
2021/07/02 05:11:47;;;;;;;17.92;8.25;;;11.00;96.20;;;;;;5049865;28;20035;-85
2021/07/02 05:14:14;;;;;;;13.88;7.88;;;11.20;96.20;;;;;;5050726;28;20025;-85
2021/07/02 05:16:41;;;;;;;13.80;8.07;;;11.40;96.30;;;;;;5037683;28;20041;-85
2021/07/02 05:19:08;;;;;;;14.05;8.73;;;11.60;96.50;;;;;;5044343;28;20025;-85
2021/07/02 05:21:35;;;;;;;13.50;8.43;;;11.70;96.50;;;;;;5041494;28;20032;-86
2021/07/02 05:24:01;;;;;;;15.57;8.55;;;11.90;97.10;;;;;;5044258;28;20341;-85
2021/07/02 05:26:27;;;;;;;13.10;8.18;;;12.00;96.80;;;;;;5035874;28;20025;-85
2021/07/02 05:28:53;;;;;;;15.77;7.43;;;12.30;97.60;;;;;;5044570;28;20021;-85
2021/07/02 05:31:21;;;;;;;14.55;7.47;;;12.40;98.00;;;;;;5035275;28;20092;-85
2021/07/02 05:33:48;;;;;;;13.05;7.63;;;12.40;98.00;;;;;;5034707;28;20330;-85
2021/07/02 05:36:15;;;;;;;11.45;7.15;;;12.60;98.00;;;;;;5038859;28;20022;-85
2021/07/02 05:38:43;;;;;;;10.05;6.68;;;12.70;98.00;;;;;;5035998;28;20021;-85
2021/07/02 05:41:09;;;;;;;11.70;6.95;;;12.70;98.00;;;;;;5041227;28;20302;-85
2021/07/02 05:43:35;;;;;;;13.70;6.70;;;12.80;98.00;;;;;;5037500;28;20053;-85
2021/07/02 05:46:07;;;;;;;13.68;8.02;;;12.90;98.00;;;;;;5043529;28;20492;-85
2021/07/02 05:48:33;;;;;;;10.18;6.60;;;13.00;98.00;;;;;;5034970;28;20398;-85
2021/07/02 05:50:59;;;;;;;12.15;8.15;;;13.10;98.00;;;;;;5041591;28;20377;-85
2021/07/02 05:53:25;;;;;;;10.85;6.68;;;13.30;98.00;;;;;;5042256;28;20029;-85
2021/07/02 05:55:51;;;;;;;16.48;7.30;;;13.40;98.00;;;;;;5038986;28;20102;-85
2021/07/02 05:58:17;;;;;;;10.60;6.60;;;13.50;97.80;;;;;;5039882;28;20037;-85
2021/07/02 06:00:46;;;;;;;12.82;7.75;;;13.70;97.70;;;;;;5041107;28;20021;-85
2021/07/02 06:03:12;;;;;;;10.52;6.40;;;13.80;97.20;;;;;;5042672;28;20056;-85
2021/07/02 06:05:38;;;;;;;9.95;6.72;;;13.90;97.30;;;;;;5033414;28;20032;-85
2021/07/02 06:08:05;;;;;;;11.60;6.60;;;14.10;96.50;;;;;;5039566;28;20037;-85
2021/07/02 06:10:31;;;;;;;11.50;7.10;;;14.20;95.80;;;;;;5042164;28;20017;-86
2021/07/02 06:12:58;;;;;;;18.30;7.20;;;14.30;95.20;;;;;;5042925;28;20025;-85
2021/07/02 06:15:24;;;;;;;16.15;7.28;;;14.30;95.70;;;;;;5037325;28;20025;-85
2021/07/02 06:17:52;;;;;;;10.63;6.30;;;14.50;95.30;;;;;;5033705;28;20116;-85
2021/07/02 06:20:22;;;;;;;9.73;6.22;;;14.60;95.30;;;;;;5038167;28;20053;-85
2021/07/02 06:22:48;;;;;;;12.13;7.13;;;14.80;95.30;;;;;;5040098;28;20025;-85
2021/07/02 06:25:14;;;;;;;11.35;6.57;;;14.90;95.00;;;;;;5051589;28;20450;-85
2021/07/02 06:27:40;;;;;;;13.93;7.10;;;14.90;95.10;;;;;;5039807;28;20033;-85
2021/07/02 06:30:07;;;;;;;10.45;6.40;;;15.00;94.50;;;;;;5030054;28;20384;-85
2021/07/02 06:32:34;;;;;;;13.05;6.43;;;15.10;94.00;;;;;;5035320;28;20033;-85
2021/07/02 06:35:00;;;;;;;13.15;6.30;;;15.20;93.60;;;;;;5032830;28;20052;-85
2021/07/02 06:37:26;;;;;;;10.13;5.72;;;15.30;93.30;;;;;;5042053;28;20055;-85
2021/07/02 06:39:52;;;;;;;9.45;6.70;;;15.30;93.00;;;;;;5039113;28;20037;-85
2021/07/02 06:42:18;;;;;;;9.70;6.38;;;15.40;92.50;;;;;;5035130;28;20037;-84
2021/07/02 06:44:44;;;;;;;11.48;6.05;;;15.50;92.60;;;;;;5037918;28;20063;-85
2021/07/02 06:47:10;;;;;;;10.20;6.25;;;15.60;92.90;;;;;;5039938;28;20053;-85
2021/07/02 06:49:38;;;;;;;10.93;6.38;;;15.60;92.80;;;;;;5037180;28;20025;-84
2021/07/02 06:52:07;;;;;;;10.32;6.20;;;15.70;91.90;;;;;;5042187;28;20071;-84
2021/07/02 06:54:33;;;;;;;10.40;5.95;;;15.80;91.00;;;;;;5035392;28;20055;-84
2021/07/02 06:57:00;;;;;;;12.35;6.07;;;15.90;91.20;;;;;;5039727;28;20033;-85
2021/07/02 06:59:27;;;;;;;12.07;6.45;;;16.00;91.20;;;;;;5029960;28;20033;-84
2021/07/02 07:01:57;;;;;;;9.73;6.10;;;16.10;91.00;;;;;;5047313;28;20099;-84
2021/07/02 07:04:24;;;;;;;11.13;5.90;;;16.30;90.60;;;;;;5042150;28;20115;-84
2021/07/02 07:06:50;;;;;;;14.00;6.53;;;16.50;90.60;;;;;;5035848;28;20025;-85
2021/07/02 07:09:16;;;;;;;10.88;6.60;;;16.70;88.80;;;;;;5043893;28;20066;-84
2021/07/02 07:11:42;;;;;;;12.57;6.70;;;16.70;88.30;;;;;;5035198;28;20108;-85
2021/07/02 07:14:08;;;;;;;11.38;6.30;;;16.70;88.40;;;;;;5035645;28;20087;-85
2021/07/02 07:16:34;;;;;;;10.45;6.80;;;17.00;88.90;;;;;;5040926;28;20057;-85
2021/07/02 07:19:00;;;;;;;10.88;5.97;;;17.10;88.20;;;;;;5039231;28;20060;-84
2021/07/02 07:21:25;;;;;;;12.75;6.65;;;17.50;88.10;;;;;;5039898;28;20033;-85
2021/07/02 07:23:53;;;;;;;10.07;6.10;;;17.90;86.20;;;;;;5034127;28;20037;-85
2021/07/02 07:26:19;;;;;;;11.85;6.95;;;17.90;86.20;;;;;;5046376;28;20032;-85
2021/07/02 07:28:45;;;;;;;11.48;6.35;;;17.70;87.30;;;;;;5050557;28;20032;-84
2021/07/02 07:31:11;;;;;;;10.00;5.95;;;17.60;86.30;;;;;;5045708;28;20108;-85
2021/07/02 07:33:43;;;;;;;10.38;6.28;;;17.40;87.10;;;;;;5041713;28;20053;-84
2021/07/02 07:36:14;;;;;;;10.18;5.88;;;17.00;86.10;;;;;;5042329;28;20025;-85
2021/07/02 07:38:40;;;;;;;12.70;6.30;;;16.90;87.10;;;;;;5042459;28;20029;-85
2021/07/02 07:41:08;;;;;;;12.35;6.70;;;16.90;87.40;;;;;;5045179;28;20360;-85
2021/07/02 07:43:34;;;;;;;10.52;6.03;;;16.80;87.10;;;;;;5042828;28;20451;-85
2021/07/02 07:46:01;;;;;;;11.20;5.68;;;16.90;87.60;;;;;;5020847;28;20127;-86
2021/07/02 07:48:27;;;;;;;10.10;5.30;;;17.50;87.30;;;;;;5023795;28;20026;-86
2021/07/02 07:51:01;;;;;;;10.13;4.80;;;18.30;84.60;;;;;;5024997;28;20025;-85
2021/07/02 07:53:28;;;;;;;8.10;5.25;;;18.90;81.80;;;;;;5025942;28;20292;-86
2021/07/02 07:55:55;;;;;;;7.90;5.22;;;19.40;79.00;;;;;;5019846;28;20108;-85
2021/07/02 07:58:20;;;;;;;9.02;5.25;;;19.70;79.10;;;;;;5024053;28;20022;-84
2021/07/02 08:00:47;;;;;;;10.02;5.18;;;20.60;77.20;;;;;;5025936;28;20045;-84
2021/07/02 08:03:13;;;;;;;9.15;5.10;;;21.70;73.70;;;;;;5019354;28;20049;-84
2021/07/02 08:05:39;;;;;;;9.13;5.53;;;22.30;72.30;;;;;;5038889;28;20052;-84
2021/07/02 08:08:05;;;;;;;10.02;4.68;;;22.90;69.40;;;;;;5042220;28;20116;-84
2021/07/02 08:10:31;;;;;;;8.98;5.35;;;22.10;71.20;;;;;;5037359;28;20033;-84
2021/07/02 08:12:57;;;;;;;9.85;5.35;;;21.20;74.10;;;;;;5036625;28;20421;-84
2021/07/02 08:15:23;;;;;;;10.57;6.15;;;20.20;74.10;;;;;;5036115;28;20356;-84
2021/07/02 08:17:50;;;;;;;8.02;4.80;;;19.60;76.40;;;;;;5024427;28;20038;-84
2021/07/02 08:20:17;;;;;;;7.75;5.00;;;20.30;75.00;;;;;;5035525;28;20125;-84
2021/07/02 08:22:43;;;;;;;7.90;5.00;;;21.50;74.60;;;;;;5037185;28;20022;-85
2021/07/02 08:25:10;;;;;;;9.18;4.90;;;22.60;69.60;;;;;;5037384;28;20043;-83
2021/07/02 08:30:20;;;;;;;6.72;4.43;;;22.80;67.20;;;;;;5022623;28;20060;-84
2021/07/02 08:32:46;;;;;;;7.15;4.47;;;23.10;67.80;;;;;;5020118;28;20419;-85
2021/07/02 08:35:15;;;;;;;11.27;5.05;;;22.30;69.00;;;;;;5025576;28;20033;-84
2021/07/02 08:37:41;;;;;;;14.45;4.50;;;20.90;72.40;;;;;;5035834;28;20029;-84
2021/07/02 08:40:08;;;;;;;8.38;4.25;;;21.20;68.10;;;;;;5019965;28;20030;-85
2021/07/02 08:42:35;;;;;;;6.85;4.38;;;21.60;68.60;;;;;;5015998;28;20034;-85
2021/07/02 08:45:02;;;;;;;6.75;3.97;;;21.70;68.10;;;;;;5043848;28;20053;-85
2021/07/02 08:47:29;;;;;;;9.60;4.55;;;21.80;69.20;;;;;;5056667;28;20372;-85
2021/07/02 08:49:57;;;;;;;6.03;3.72;;;22.80;68.60;;;;;;5039166;28;20029;-85
2021/07/02 08:52:23;;;;;;;7.90;4.47;;;23.60;65.70;;;;;;5035936;28;20025;-85
2021/07/02 08:54:50;;;;;;;10.75;4.55;;;21.90;67.40;;;;;;5049971;28;20021;-85
2021/07/02 08:57:18;;;;;;;7.00;4.70;;;21.10;70.70;;;;;;5056857;28;20025;-85
2021/07/02 08:59:44;;;;;;;9.07;4.82;;;21.80;68.60;;;;;;5042679;28;20410;-85
2021/07/02 09:02:28;;;;;;;8.43;4.47;;;21.90;70.30;;;;;;5038978;28;20021;-86
2021/07/02 09:04:54;;;;;;;9.20;4.57;;;22.80;67.60;;;;;;5052240;28;20116;-87
2021/07/02 09:07:20;;;;;;;8.38;5.05;;;22.60;68.00;;;;;;5048981;28;20098;-87
2021/07/02 09:09:48;;;;;;;9.70;4.65;;;20.90;71.10;;;;;;5043073;28;20491;-86
2021/07/02 09:12:19;;;;;;;6.93;4.35;;;19.70;73.20;;;;;;5038999;28;20451;-86
2021/07/02 09:15:15;;;;;;;11.18;4.55;;;19.30;76.10;;;;;;5055632;28;20025;-87
2021/07/02 09:17:50;;;;;;;7.72;4.68;;;20.90;72.80;;;;;;5042906;28;20037;-87
2021/07/02 09:20:46;;;;;;;10.10;4.10;;;20.20;71.10;;;;;;5034404;28;20048;-87
2021/07/02 09:23:13;;;;;;;7.15;4.20;;;20.60;68.30;;;;;;5046767;28;20029;-86
2021/07/02 09:25:54;;;;;;;7.05;3.95;;;21.90;66.30;;;;;;5055657;28;20170;-87
2021/07/02 09:28:25;;;;;;;6.45;4.00;;;22.50;66.30;;;;;;5052830;28;20402;-87
2021/07/02 09:30:54;;;;;;;7.07;4.10;;;23.40;65.20;;;;;;5054961;28;20413;-87
2021/07/02 09:33:27;;;;;;;6.78;3.67;;;24.20;63.10;;;;;;5050598;28;20017;-88
2021/07/02 09:36:01;;;;;;;6.60;4.03;;;24.70;61.80;;;;;;5053871;28;20444;-86
2021/07/02 09:38:52;;;;;;;6.25;3.45;;;23.60;63.60;;;;;;5044086;28;20030;-87
2021/07/02 09:41:33;;;;;;;7.40;3.83;;;23.60;63.90;;;;;;5036227;28;20030;-87
2021/07/02 09:44:19;;;;;;;7.22;3.80;;;22.90;64.20;;;;;;5052511;28;20053;-87
2021/07/02 09:46:46;;;;;;;6.95;4.10;;;23.30;65.00;;;;;;5054762;28;20036;-87
2021/07/02 09:49:30;;;;;;;5.90;3.70;;;23.60;63.90;;;;;;5053676;28;20021;-87
2021/07/02 09:52:16;;;;;;;5.88;3.80;;;23.40;65.60;;;;;;5055580;28;20021;-87
2021/07/02 09:55:04;;;;;;;7.70;3.78;;;23.90;63.60;;;;;;5035508;28;20018;-87
2021/07/02 09:57:32;;;;;;;6.90;4.00;;;24.30;61.60;;;;;;5053161;28;20033;-89
2021/07/02 10:00:10;;;;;;;7.50;4.63;;;23.70;64.60;;;;;;5039911;28;20028;-87
2021/07/02 10:02:38;;;;;;;7.22;3.60;;;22.30;65.20;;;;;;5042309;28;20033;-87
2021/07/02 10:05:06;;;;;;;5.50;3.00;;;22.00;65.40;;;;;;5034694;28;20026;-87
2021/07/02 10:07:34;;;;;;;7.18;3.33;;;22.60;63.70;;;;;;5061831;28;20119;-88
2021/07/02 10:10:00;;;;;;;6.80;3.63;;;23.30;61.70;;;;;;5074482;28;20052;-87
2021/07/02 10:12:28;;;;;;;6.35;4.18;;;23.40;62.90;;;;;;5064589;28;20029;-86
2021/07/02 10:14:56;;;;;;;6.18;4.00;;;23.30;62.80;;;;;;5037631;28;20063;-86
2021/07/02 10:17:23;;;;;;;5.70;3.20;;;22.20;64.50;;;;;;5053599;28;20497;-86
2021/07/02 10:19:49;;;;;;;6.10;3.88;;;22.80;64.50;;;;;;5053115;28;20096;-87
2021/07/02 10:22:20;;;;;;;7.07;4.00;;;23.50;64.10;;;;;;5049556;28;20017;-87
2021/07/02 10:24:49;;;;;;;6.72;3.85;;;24.00;62.80;;;;;;5053820;28;20029;-86
2021/07/02 10:27:15;;;;;;;5.10;3.28;;;23.30;63.60;;;;;;5050635;28;20040;-86
2021/07/02 10:29:46;;;;;;;9.57;3.55;;;21.90;62.90;;;;;;5053676;28;20100;-87
2021/07/02 10:32:14;;;;;;;7.32;3.90;;;21.40;67.80;;;;;;5056245;28;20017;-87
2021/07/02 10:34:41;;;;;;;6.97;3.50;;;22.70;66.00;;;;;;5053074;28;20017;-86
2021/07/02 10:37:09;;;;;;;6.22;3.45;;;22.90;62.00;;;;;;5053218;28;20028;-86
2021/07/02 10:39:37;;;;;;;6.28;3.92;;;21.90;63.70;;;;;;5053493;28;20409;-87
2021/07/02 10:42:08;;;;;;;8.23;3.40;;;22.00;64.00;;;;;;5054341;28;20039;-86
2021/07/02 10:44:54;;;;;;;11.13;4.20;;;21.70;65.00;;;;;;5053409;28;20063;-87
2021/07/02 10:47:23;;;;;;;6.68;3.65;;;22.10;65.00;;;;;;5044752;28;20036;-87
2021/07/02 10:49:50;;;;;;;6.30;3.40;;;23.40;64.40;;;;;;5051702;28;20025;-87
2021/07/02 10:52:23;;;;;;;6.43;3.70;;;24.50;61.50;;;;;;5035021;28;20024;-86
2021/07/02 10:54:51;;;;;;;6.25;3.42;;;25.00;58.20;;;;;;5034503;28;20029;-86
2021/07/02 10:57:20;;;;;;;6.38;3.35;;;25.00;59.00;;;;;;5041444;28;20031;-85
2021/07/02 10:59:49;;;;;;;7.38;3.53;;;24.80;57.00;;;;;;5043565;28;20025;-86
2021/07/02 11:02:23;;;;;;;6.13;3.40;;;24.20;60.30;;;;;;5039085;28;20025;-87
2021/07/02 11:04:56;;;;;;;6.38;3.63;;;24.10;59.60;;;;;;5043712;28;20064;-86
2021/07/02 11:07:29;;;;;;;6.25;3.55;;;23.40;62.30;;;;;;5049357;28;20033;-86
2021/07/02 11:10:03;;;;;;;6.88;3.95;;;23.00;62.10;;;;;;5043843;28;20017;-86
2021/07/02 11:12:31;;;;;;;6.68;3.75;;;22.30;63.00;;;;;;5033883;28;20025;-87
2021/07/02 11:15:08;;;;;;;7.93;3.50;;;22.80;63.80;;;;;;5047638;28;20362;-86
2021/07/02 11:17:34;;;;;;;6.95;3.63;;;23.50;63.20;;;;;;5053738;28;20025;-86
2021/07/02 11:23:12;;;;;;;7.18;3.60;;;23.80;60.00;;;;;;5052558;28;20025;-86
2021/07/02 11:25:49;;;;;;;6.80;3.75;;;24.20;59.00;;;;;;5047642;28;20300;-86
2021/07/02 11:28:28;;;;;;;5.68;3.42;;;24.00;59.70;;;;;;5041652;28;20026;-86
2021/07/02 11:31:04;;;;;;;6.53;3.40;;;23.40;60.40;;;;;;5039569;28;20032;-87
2021/07/02 11:33:31;;;;;;;5.97;3.15;;;23.70;60.30;;;;;;5040975;28;20322;-87
2021/07/02 11:36:00;;;;;;;5.60;3.45;;;23.60;60.90;;;;;;5044111;28;20032;-85
2021/07/02 11:38:30;;;;;;;6.18;3.40;;;23.90;59.50;;;;;;5051005;28;20044;-85
2021/07/02 11:41:05;;;;;;;5.25;3.33;;;23.70;58.40;;;;;;5043136;28;20029;-86
2021/07/02 11:43:39;;;;;;;6.43;3.08;;;23.30;59.60;;;;;;5042855;28;20120;-86
2021/07/02 11:46:06;;;;;;;6.85;3.63;;;23.30;60.00;;;;;;5046274;28;20051;-87
2021/07/02 11:48:35;;;;;;;5.88;3.58;;;23.50;59.20;;;;;;5039940;28;20029;-86
2021/07/02 11:51:07;;;;;;;6.25;3.35;;;23.90;59.60;;;;;;5050567;28;20037;-88
2021/07/02 11:53:42;;;;;;;6.07;3.60;;;24.10;59.50;;;;;;5036806;28;20026;-87
2021/07/02 11:56:09;;;;;;;6.80;3.30;;;24.90;59.90;;;;;;5034191;28;20029;-86
2021/07/02 11:59:01;;;;;;;10.23;4.05;;;24.90;56.30;;;;;;5050511;28;20120;-89
2021/07/02 12:01:41;;;;;;;7.80;3.83;;;23.60;60.10;;;;;;5044090;28;20434;-87
2021/07/02 12:04:11;;;;;;;5.93;3.60;;;23.80;60.80;;;;;;5044672;28;20036;-88
2021/07/02 12:06:44;;;;;;;8.88;3.97;;;24.00;59.10;;;;;;5044955;28;20040;-85
2021/07/02 12:09:18;;;;;;;5.97;3.45;;;24.30;58.60;;;;;;5042420;28;20029;-86
2021/07/02 12:11:55;;;;;;;6.57;3.42;;;24.40;58.20;;;;;;5033643;28;20018;-88
2021/07/02 12:14:27;;;;;;;6.47;3.33;;;24.50;57.70;;;;;;5049465;28;20329;-86
2021/07/02 12:16:56;;;;;;;5.82;3.13;;;24.10;57.00;;;;;;5056836;28;20017;-88
2021/07/02 12:19:27;;;;;;;6.50;3.60;;;24.10;57.20;;;;;;5052583;28;20083;-86
2021/07/02 12:22:05;;;;;;;6.72;3.67;;;24.10;58.10;;;;;;5039301;28;20088;-88
2021/07/02 12:24:33;;;;;;;5.78;3.42;;;23.70;59.30;;;;;;5063528;28;20478;-87
2021/07/02 12:27:01;;;;;;;8.27;4.53;;;23.60;60.10;;;;;;5050971;28;20047;-86
2021/07/02 12:29:30;;;;;;;5.68;3.70;;;23.30;61.50;;;;;;5038997;28;20079;-86
2021/07/02 12:31:59;;;;;;;6.70;3.60;;;23.20;61.20;;;;;;5042082;28;20017;-86
2021/07/02 12:34:32;;;;;;;11.02;4.30;;;23.20;62.20;;;;;;5042923;28;20121;-86
2021/07/02 12:37:03;;;;;;;6.50;3.90;;;22.80;61.80;;;;;;5042464;28;20025;-87
2021/07/02 12:39:39;;;;;;;6.15;3.70;;;22.30;62.90;;;;;;5045750;28;20036;-86
2021/07/02 12:42:22;;;;;;;8.45;3.50;;;22.60;62.90;;;;;;5039622;28;20500;-87
2021/07/02 12:44:51;;;;;;;6.17;3.40;;;23.70;61.40;;;;;;5054976;28;21134;-87
2021/07/02 12:47:18;;;;;;;5.78;3.50;;;24.80;57.60;;;;;;5042797;28;20029;-87
2021/07/02 12:49:54;;;;;;;6.28;3.35;;;24.90;59.10;;;;;;5046878;28;20029;-88
2021/07/02 12:54:54;;;;;;;6.50;3.65;;;24.10;60.30;;;;;;5054574;28;20036;-87